Time;durP1;ratioP1;P1;durP2;ratioP2;P2;SDS_P1;SDS_P2;PMS_P1;PMS_P2;Temp;Humidity;BMP_temperature;BMP_pressure;BME280_temperature;BME280_humidity;BME280_pressure;Samples;Min_cycle;Max_cycle;Signal;HPM_P1;HPM_P2
2022/03/02 00:00:21;;;;;;;13.73;9.03;;;2.90;99.90;;;;;;4874389;29;20537;-81
2022/03/02 00:03:07;;;;;;;11.17;8.63;;;2.90;99.90;;;;;;4874665;29;20404;-80
2022/03/02 00:05:52;;;;;;;11.50;9.10;;;2.90;99.90;;;;;;4873458;29;20432;-80
2022/03/02 00:08:37;;;;;;;8.90;8.10;;;2.90;99.90;;;;;;4873361;29;20409;-80
2022/03/02 00:11:21;;;;;;;8.93;8.03;;;2.90;99.90;;;;;;4873634;29;20431;-80
2022/03/02 00:14:07;;;;;;;9.23;8.17;;;2.90;99.90;;;;;;4876122;29;20400;-80
2022/03/02 00:16:52;;;;;;;17.97;9.87;;;2.90;99.90;;;;;;4872208;29;20369;-80
2022/03/02 00:19:37;;;;;;;9.60;8.13;;;3.00;99.90;;;;;;4872638;29;20462;-81
2022/03/02 00:22:22;;;;;;;9.37;6.67;;;2.90;99.90;;;;;;4873041;29;20391;-80
2022/03/02 00:25:08;;;;;;;14.00;8.97;;;2.90;99.90;;;;;;4872216;29;20870;-80
2022/03/02 00:27:54;;;;;;;13.17;7.80;;;2.90;99.90;;;;;;4872525;29;20381;-81
2022/03/02 00:30:38;;;;;;;9.80;7.63;;;2.90;99.90;;;;;;4872245;29;20937;-79
2022/03/02 00:33:23;;;;;;;17.33;10.10;;;2.90;99.90;;;;;;4873347;29;20399;-80
2022/03/02 00:36:07;;;;;;;9.60;6.93;;;2.80;99.90;;;;;;4872761;29;20399;-80
2022/03/02 00:38:53;;;;;;;11.23;8.17;;;2.80;99.90;;;;;;4884342;29;20458;-80
2022/03/02 00:41:39;;;;;;;16.03;8.00;;;2.90;99.90;;;;;;4872229;29;20399;-80
2022/03/02 00:44:23;;;;;;;19.40;9.97;;;2.90;99.90;;;;;;4872497;29;20962;-78
2022/03/02 00:47:09;;;;;;;13.70;7.87;;;2.80;99.90;;;;;;4872794;29;20467;-80
2022/03/02 00:49:53;;;;;;;11.87;8.20;;;2.90;99.90;;;;;;4877063;29;20403;-80
2022/03/02 00:52:39;;;;;;;10.50;7.70;;;2.80;99.90;;;;;;4890206;29;20427;-79
2022/03/02 00:55:24;;;;;;;10.60;8.90;;;2.80;99.90;;;;;;4877793;29;20459;-80
2022/03/02 00:58:09;;;;;;;15.07;8.50;;;2.80;99.90;;;;;;4875511;29;20548;-80
2022/03/02 01:00:53;;;;;;;10.67;8.77;;;2.90;99.90;;;;;;4872825;29;20439;-80
2022/03/02 01:03:38;;;;;;;9.63;8.47;;;2.80;99.90;;;;;;4871181;29;20439;-80
2022/03/02 01:06:23;;;;;;;12.00;8.73;;;2.60;99.90;;;;;;4873339;29;20416;-80
2022/03/02 01:09:08;;;;;;;10.43;9.07;;;2.50;99.90;;;;;;4872700;29;21003;-80
2022/03/02 01:11:54;;;;;;;6.80;6.10;;;2.40;99.90;;;;;;4895987;29;20477;-79
2022/03/02 01:14:39;;;;;;;9.53;8.00;;;2.30;99.90;;;;;;4875371;29;20399;-80
2022/03/02 01:17:24;;;;;;;13.40;8.53;;;2.10;99.90;;;;;;4873852;29;20399;-80
2022/03/02 01:20:10;;;;;;;8.83;7.47;;;1.80;99.90;;;;;;4871714;29;20446;-80
2022/03/02 01:22:55;;;;;;;14.17;8.70;;;2.10;99.90;;;;;;4884689;29;20415;-80
2022/03/02 01:25:40;;;;;;;10.73;8.03;;;2.20;99.90;;;;;;4877430;29;20542;-80
2022/03/02 01:28:25;;;;;;;8.67;7.77;;;2.20;99.90;;;;;;4873496;29;20440;-80
2022/03/02 01:31:09;;;;;;;12.20;8.00;;;2.10;99.90;;;;;;4879774;29;20864;-78
2022/03/02 01:33:54;;;;;;;15.60;8.20;;;1.80;99.90;;;;;;4896427;29;20382;-77
2022/03/02 01:36:39;;;;;;;15.63;7.77;;;1.70;99.90;;;;;;4883487;29;20415;-77
2022/03/02 01:39:24;;;;;;;10.20;7.50;;;1.60;99.90;;;;;;4896015;29;20442;-77
2022/03/02 01:42:09;;;;;;;10.37;6.10;;;1.50;99.90;;;;;;4872519;29;20468;-79
2022/03/02 01:44:54;;;;;;;11.53;8.13;;;1.80;99.90;;;;;;4883791;29;20387;-79
2022/03/02 01:47:39;;;;;;;6.67;5.80;;;2.00;99.90;;;;;;4870980;29;20393;-80
2022/03/02 01:50:23;;;;;;;11.13;6.90;;;2.10;99.90;;;;;;4871208;29;20400;-79
2022/03/02 01:53:07;;;;;;;11.23;8.33;;;2.30;99.90;;;;;;4871674;29;20484;-78
2022/03/02 01:55:55;;;;;;;12.80;8.03;;;2.40;99.90;;;;;;4871458;29;20439;-79
2022/03/02 01:58:40;;;;;;;11.70;8.53;;;2.60;99.90;;;;;;4883342;29;20482;-79
2022/03/02 02:01:25;;;;;;;12.80;8.77;;;1.90;99.90;;;;;;4870642;29;20422;-80
2022/03/02 02:04:10;;;;;;;14.50;8.77;;;2.00;99.90;;;;;;4871147;29;20395;-79
2022/03/02 02:06:54;;;;;;;11.40;6.57;;;2.10;99.90;;;;;;4883302;29;20391;-79
2022/03/02 02:09:38;;;;;;;8.93;7.83;;;2.30;99.90;;;;;;4870794;29;20394;-79
2022/03/02 02:12:24;;;;;;;10.70;7.17;;;2.40;99.90;;;;;;4871091;29;20395;-80
2022/03/02 02:15:10;;;;;;;11.07;7.20;;;2.50;99.90;;;;;;4871453;29;20721;-80
2022/03/02 02:17:54;;;;;;;21.63;7.20;;;2.60;99.90;;;;;;4882876;29;20407;-80
2022/03/02 02:20:40;;;;;;;13.60;8.00;;;2.50;99.90;;;;;;4871419;29;20403;-80
2022/03/02 02:23:24;;;;;;;12.27;7.87;;;2.40;99.90;;;;;;4870276;29;20383;-80
2022/03/02 02:26:09;;;;;;;16.43;7.97;;;2.40;99.90;;;;;;4871164;29;20390;-79
2022/03/02 02:28:55;;;;;;;11.60;7.73;;;2.40;99.90;;;;;;4871823;29;20395;-80
2022/03/02 02:31:41;;;;;;;14.80;8.40;;;2.50;99.90;;;;;;4871987;29;20505;-80
2022/03/02 02:34:25;;;;;;;11.53;6.50;;;2.40;99.90;;;;;;4874643;29;20400;-80
2022/03/02 02:37:12;;;;;;;7.43;6.67;;;2.50;99.90;;;;;;4874808;29;20392;-80
2022/03/02 02:40:00;;;;;;;9.03;7.77;;;2.50;99.90;;;;;;4874890;29;20459;-80
2022/03/02 02:42:45;;;;;;;14.10;9.50;;;2.50;99.90;;;;;;4874879;29;20474;-81
2022/03/02 02:45:31;;;;;;;9.70;8.07;;;2.50;99.90;;;;;;4874435;29;20899;-80
2022/03/02 02:48:19;;;;;;;12.30;7.40;;;2.40;99.90;;;;;;4874802;29;20521;-81
2022/03/02 02:51:06;;;;;;;11.97;8.13;;;2.30;99.90;;;;;;4875189;29;20369;-81
2022/03/02 02:53:51;;;;;;;8.97;7.00;;;2.20;99.90;;;;;;4875245;29;20533;-81
2022/03/02 02:56:35;;;;;;;8.70;6.07;;;2.20;99.90;;;;;;4875448;29;20452;-81
2022/03/02 02:59:20;;;;;;;11.60;6.50;;;2.20;99.90;;;;;;4876401;29;21084;-80
2022/03/02 03:02:06;;;;;;;8.03;6.47;;;2.10;99.90;;;;;;4875930;29;20857;-80
2022/03/02 03:04:50;;;;;;;11.80;7.97;;;2.20;99.90;;;;;;4875322;29;20391;-80
2022/03/02 03:07:35;;;;;;;10.20;6.30;;;2.10;99.90;;;;;;4874169;29;20395;-80
2022/03/02 03:10:20;;;;;;;13.60;8.43;;;2.00;99.90;;;;;;4874070;29;20395;-80
2022/03/02 03:13:08;;;;;;;10.33;7.70;;;2.00;99.90;;;;;;4871678;29;20415;-80
2022/03/02 03:15:53;;;;;;;7.53;6.43;;;1.90;99.90;;;;;;4871988;29;20532;-81
2022/03/02 03:18:37;;;;;;;9.63;6.93;;;1.90;99.90;;;;;;4872340;29;20454;-80
2022/03/02 03:21:22;;;;;;;10.60;5.83;;;1.70;99.90;;;;;;4871670;29;20425;-79
2022/03/02 03:24:06;;;;;;;6.50;5.90;;;1.60;99.90;;;;;;4872165;29;20420;-81
2022/03/02 03:26:50;;;;;;;10.33;8.03;;;1.50;99.90;;;;;;4871890;29;20414;-80
2022/03/02 03:29:35;;;;;;;15.03;7.37;;;1.60;99.90;;;;;;4871878;29;20391;-79
2022/03/02 03:32:19;;;;;;;10.30;8.10;;;1.80;99.90;;;;;;4871855;29;20422;-80
2022/03/02 03:35:06;;;;;;;10.07;7.63;;;2.00;99.90;;;;;;4871714;29;20423;-81
2022/03/02 03:37:51;;;;;;;12.10;8.47;;;2.00;99.90;;;;;;4859014;29;20419;-80
2022/03/02 03:40:35;;;;;;;15.13;6.37;;;1.90;99.90;;;;;;4872283;29;20479;-81
2022/03/02 03:43:20;;;;;;;10.17;7.70;;;1.90;99.90;;;;;;4872501;29;20406;-80
2022/03/02 03:46:05;;;;;;;7.70;6.90;;;1.70;99.90;;;;;;4874072;29;20460;-80
2022/03/02 03:48:50;;;;;;;11.97;7.30;;;1.70;99.90;;;;;;4873765;29;20366;-81
2022/03/02 03:51:35;;;;;;;10.93;7.50;;;1.70;99.90;;;;;;4874737;29;20436;-81
2022/03/02 03:54:19;;;;;;;11.83;7.97;;;1.90;99.90;;;;;;4873851;29;20437;-81
2022/03/02 03:57:05;;;;;;;14.83;9.83;;;1.80;99.90;;;;;;4873510;29;21027;-80
2022/03/02 03:59:50;;;;;;;13.10;7.53;;;1.80;99.90;;;;;;4873036;29;20490;-80
2022/03/02 04:02:35;;;;;;;8.07;7.27;;;1.90;99.90;;;;;;4874301;29;20459;-80
2022/03/02 04:05:20;;;;;;;10.23;7.80;;;1.80;99.90;;;;;;4874195;29;20402;-81
2022/03/02 04:08:04;;;;;;;10.03;6.53;;;1.90;99.90;;;;;;4876617;29;20464;-79
2022/03/02 04:10:50;;;;;;;10.80;9.47;;;1.90;99.90;;;;;;4883678;29;20398;-80
2022/03/02 04:13:35;;;;;;;14.83;7.90;;;2.00;99.90;;;;;;4873908;29;20914;-81
2022/03/02 04:16:19;;;;;;;7.80;6.80;;;2.00;99.90;;;;;;4875134;29;20448;-80
2022/03/02 04:19:04;;;;;;;12.27;6.30;;;2.00;99.90;;;;;;4886218;29;20446;-82
2022/03/02 04:21:49;;;;;;;10.30;6.17;;;1.80;99.90;;;;;;4875529;29;20447;-80
2022/03/02 04:24:33;;;;;;;10.40;6.73;;;1.50;99.90;;;;;;4875947;29;20440;-80
2022/03/02 04:27:18;;;;;;;9.73;7.17;;;0.90;99.90;;;;;;4877210;29;20420;-80
2022/03/02 04:30:06;;;;;;;8.30;6.60;;;0.80;99.90;;;;;;4877616;29;20428;-80
2022/03/02 04:32:51;;;;;;;8.43;5.87;;;1.10;99.90;;;;;;4891257;29;20544;-80
2022/03/02 04:35:36;;;;;;;13.50;6.27;;;1.40;99.90;;;;;;4891434;29;20391;-78
2022/03/02 04:38:20;;;;;;;6.80;5.33;;;1.60;99.90;;;;;;4877024;29;20476;-80
2022/03/02 04:41:05;;;;;;;9.90;6.03;;;1.70;99.90;;;;;;4877017;29;20391;-78
2022/03/02 04:43:50;;;;;;;8.50;6.70;;;1.70;99.90;;;;;;4876408;29;20409;-80
2022/03/02 04:46:34;;;;;;;9.50;7.90;;;1.80;99.90;;;;;;4875157;29;20438;-80
2022/03/02 04:49:20;;;;;;;13.17;7.40;;;1.80;99.90;;;;;;4876127;29;20403;-80
2022/03/02 04:52:05;;;;;;;9.50;5.53;;;1.80;99.90;;;;;;4876376;29;20924;-80
2022/03/02 04:57:53;;;;;;;10.47;7.67;;;1.70;99.90;;;;;;4889890;29;20924;-79
2022/03/02 05:00:37;;;;;;;16.30;8.70;;;1.90;99.90;;;;;;4877705;29;20395;-80
2022/03/02 05:03:22;;;;;;;15.63;6.50;;;1.90;99.90;;;;;;4878695;29;20394;-79
2022/03/02 05:06:07;;;;;;;10.20;6.20;;;1.90;99.90;;;;;;4882423;29;20395;-78
2022/03/02 05:08:51;;;;;;;18.73;11.57;;;1.90;99.90;;;;;;4881470;29;20437;-78
2022/03/02 05:11:36;;;;;;;17.43;8.93;;;1.80;99.90;;;;;;4882807;29;20216;-79
2022/03/02 05:14:21;;;;;;;10.67;7.43;;;1.80;99.90;;;;;;4894990;29;20403;-79
2022/03/02 05:17:06;;;;;;;11.00;7.47;;;1.80;99.90;;;;;;4881129;29;20444;-77
2022/03/02 05:19:50;;;;;;;13.30;8.20;;;1.90;99.90;;;;;;4881900;29;20456;-79
2022/03/02 05:22:36;;;;;;;22.60;6.93;;;1.90;99.90;;;;;;4882906;29;20451;-80
2022/03/02 05:25:20;;;;;;;8.90;6.30;;;1.90;99.90;;;;;;4877522;29;20395;-80
2022/03/02 05:28:05;;;;;;;18.13;6.77;;;1.90;99.90;;;;;;4873122;29;20422;-80
2022/03/02 05:30:49;;;;;;;8.60;5.60;;;2.00;99.90;;;;;;4885580;29;20365;-81
2022/03/02 05:33:36;;;;;;;11.90;6.97;;;1.90;99.90;;;;;;4873141;29;20365;-80
2022/03/02 05:36:21;;;;;;;7.23;6.63;;;2.00;99.90;;;;;;4871998;29;20447;-80
2022/03/02 05:39:06;;;;;;;11.77;7.80;;;2.10;99.90;;;;;;4871079;29;20451;-81
2022/03/02 05:41:51;;;;;;;10.17;6.20;;;2.00;99.90;;;;;;4870630;29;20399;-79
2022/03/02 05:44:36;;;;;;;19.43;6.90;;;2.00;99.90;;;;;;4869003;29;20821;-80
2022/03/02 05:47:20;;;;;;;7.07;5.13;;;1.90;99.90;;;;;;4868299;29;20452;-79
2022/03/02 05:50:07;;;;;;;8.83;5.63;;;2.00;99.90;;;;;;4868567;29;20762;-79
2022/03/02 05:52:51;;;;;;;10.80;6.67;;;2.00;99.90;;;;;;4880111;29;20413;-79
2022/03/02 05:55:37;;;;;;;8.13;6.43;;;2.00;99.90;;;;;;4867452;29;20509;-80
2022/03/02 05:58:22;;;;;;;10.57;6.50;;;2.00;99.90;;;;;;4869253;29;21085;-80
2022/03/02 06:01:07;;;;;;;7.70;6.93;;;2.00;99.90;;;;;;4886429;29;20394;-80
2022/03/02 06:03:52;;;;;;;7.87;6.33;;;1.90;99.90;;;;;;4887202;29;20485;-79
2022/03/02 06:06:37;;;;;;;10.93;7.10;;;1.90;99.90;;;;;;4887898;29;20398;-79
2022/03/02 06:09:22;;;;;;;11.23;7.90;;;1.50;99.90;;;;;;4855464;29;20398;-78
2022/03/02 06:12:07;;;;;;;9.60;6.57;;;1.30;99.90;;;;;;4871623;29;20462;-80
2022/03/02 06:14:52;;;;;;;9.53;6.40;;;1.30;99.90;;;;;;4868957;29;20430;-80
2022/03/02 06:17:37;;;;;;;7.93;6.53;;;1.40;99.90;;;;;;4863880;29;20949;-81
2022/03/02 06:20:22;;;;;;;9.97;8.40;;;1.40;99.90;;;;;;4872652;29;20559;-83
2022/03/02 06:23:06;;;;;;;8.97;6.70;;;1.60;99.90;;;;;;4858156;29;20377;-79
2022/03/02 06:25:50;;;;;;;8.07;6.00;;;1.80;99.90;;;;;;4870879;29;20418;-80
2022/03/02 06:28:35;;;;;;;10.43;7.30;;;1.80;99.90;;;;;;4873223;29;20822;-80
2022/03/02 06:31:21;;;;;;;10.83;9.70;;;1.90;99.90;;;;;;4886832;29;20470;-81
2022/03/02 06:34:05;;;;;;;13.27;6.80;;;2.10;99.90;;;;;;4890166;29;20413;-79
2022/03/02 06:36:51;;;;;;;11.40;8.90;;;2.20;99.90;;;;;;4883582;29;21026;-79
2022/03/02 06:39:35;;;;;;;12.90;7.80;;;2.20;99.90;;;;;;4879218;29;20533;-81
2022/03/02 06:42:28;;;;;;;8.10;7.13;;;2.10;99.90;;;;;;4878859;29;20430;-81
2022/03/02 06:45:22;;;;;;;18.10;7.07;;;2.20;99.90;;;;;;4849145;29;21009;-80
2022/03/02 06:48:12;;;;;;;13.03;6.33;;;2.20;99.90;;;;;;4872675;29;20498;-81
2022/03/02 06:51:00;;;;;;;7.70;6.33;;;2.20;99.90;;;;;;4873123;29;20427;-80
2022/03/02 06:53:45;;;;;;;14.43;7.40;;;2.30;99.90;;;;;;4871193;29;20483;-81
2022/03/02 06:56:38;;;;;;;8.77;6.60;;;2.40;99.90;;;;;;4865071;29;20450;-79
2022/03/02 06:59:37;;;;;;;10.40;8.90;;;2.40;99.90;;;;;;4881404;29;20527;-80
2022/03/02 07:02:47;;;;;;;13.27;7.00;;;2.50;99.90;;;;;;4859961;29;20481;-79
2022/03/02 07:05:34;;;;;;;12.17;7.60;;;2.50;99.90;;;;;;4861872;29;20564;-80
2022/03/02 07:08:18;;;;;;;25.00;10.27;;;2.40;99.90;;;;;;4877306;29;20418;-78
2022/03/02 07:11:03;;;;;;;14.80;9.20;;;2.50;99.90;;;;;;4881240;29;20429;-82
2022/03/02 07:13:49;;;;;;;9.47;7.10;;;2.50;99.90;;;;;;4866843;29;20444;-79
2022/03/02 07:16:34;;;;;;;12.23;8.03;;;2.40;99.90;;;;;;4869903;29;20487;-80
2022/03/02 07:19:19;;;;;;;13.70;8.13;;;2.50;99.90;;;;;;4859193;29;20505;-79
2022/03/02 07:22:07;;;;;;;10.73;8.50;;;2.20;99.90;;;;;;4873076;29;20438;-80
2022/03/02 07:24:54;;;;;;;13.57;8.30;;;2.30;99.90;;;;;;4865438;29;20431;-80
2022/03/02 07:27:41;;;;;;;7.60;6.70;;;2.40;99.90;;;;;;4864986;29;20433;-78
2022/03/02 07:30:27;;;;;;;11.30;6.63;;;2.30;99.90;;;;;;4879822;29;20412;-80
2022/03/02 07:33:15;;;;;;;7.97;7.20;;;2.50;99.90;;;;;;4869348;29;20450;-80
2022/03/02 07:36:00;;;;;;;13.03;6.33;;;2.30;99.90;;;;;;4877637;29;20443;-80
2022/03/02 07:38:44;;;;;;;12.50;7.77;;;2.50;99.90;;;;;;4872360;29;20495;-80
2022/03/02 07:41:29;;;;;;;14.40;9.00;;;2.60;99.90;;;;;;4861363;29;20613;-79
2022/03/02 07:44:14;;;;;;;10.57;7.23;;;2.80;99.90;;;;;;4866093;29;20513;-80
2022/03/02 07:46:58;;;;;;;7.50;5.70;;;2.90;99.90;;;;;;4873227;29;20815;-80
2022/03/02 07:49:43;;;;;;;13.30;7.67;;;2.80;99.90;;;;;;4876761;29;20423;-81
2022/03/02 07:52:30;;;;;;;8.97;7.63;;;2.90;99.90;;;;;;4851027;29;20471;-81
2022/03/02 07:55:17;;;;;;;8.33;6.73;;;2.90;99.90;;;;;;4875331;29;20484;-80
2022/03/02 07:58:04;;;;;;;13.90;6.73;;;2.90;99.90;;;;;;4881904;29;20473;-82
2022/03/02 08:00:52;;;;;;;12.53;7.00;;;3.00;99.90;;;;;;4864678;29;20467;-80
2022/03/02 08:03:57;;;;;;;10.93;6.40;;;3.00;99.90;;;;;;4868583;29;20543;-80
2022/03/02 08:06:42;;;;;;;22.50;8.67;;;3.00;99.90;;;;;;4871627;29;20463;-79
2022/03/02 08:09:26;;;;;;;9.83;6.47;;;2.90;99.90;;;;;;4876539;29;20477;-80
2022/03/02 08:12:12;;;;;;;9.53;6.50;;;3.10;99.90;;;;;;4889998;29;20462;-81
2022/03/02 08:14:57;;;;;;;16.63;7.60;;;3.20;99.90;;;;;;4879018;29;20483;-79
2022/03/02 08:17:43;;;;;;;8.20;6.97;;;2.70;99.90;;;;;;4882518;29;20459;-79
2022/03/02 08:20:27;;;;;;;11.70;8.60;;;2.30;99.90;;;;;;4890813;29;20457;-80
2022/03/02 08:23:12;;;;;;;17.50;7.93;;;2.20;99.90;;;;;;4877992;29;20385;-81
2022/03/02 08:25:57;;;;;;;16.27;9.13;;;2.40;99.90;;;;;;4870767;29;20510;-82
2022/03/02 08:28:44;;;;;;;14.50;8.97;;;2.50;99.90;;;;;;4863396;29;20454;-82
2022/03/02 08:31:29;;;;;;;14.47;8.93;;;2.90;99.90;;;;;;4867514;29;20807;-80
2022/03/02 08:34:14;;;;;;;8.73;7.37;;;3.00;99.90;;;;;;4868677;29;20492;-77
2022/03/02 08:37:01;;;;;;;13.73;9.73;;;2.90;99.90;;;;;;4887012;29;20495;-78
2022/03/02 08:39:46;;;;;;;13.37;8.30;;;2.60;99.90;;;;;;4886087;29;20458;-80
2022/03/02 08:42:32;;;;;;;14.27;8.40;;;3.00;99.90;;;;;;4875691;29;20458;-79
2022/03/02 08:45:18;;;;;;;12.10;8.17;;;3.20;99.90;;;;;;4861312;29;20442;-77
2022/03/02 08:48:05;;;;;;;12.30;8.33;;;3.50;99.90;;;;;;4867972;29;20452;-80
2022/03/02 08:50:52;;;;;;;12.80;9.80;;;3.60;99.90;;;;;;4870581;29;20448;-80
2022/03/02 08:53:38;;;;;;;17.50;11.07;;;3.60;99.90;;;;;;4879754;29;20451;-78
2022/03/02 08:56:25;;;;;;;15.20;7.00;;;3.70;99.90;;;;;;4883384;29;20537;-78
2022/03/02 08:59:14;;;;;;;15.53;6.70;;;3.90;99.90;;;;;;4886734;29;20498;-81
2022/03/02 09:02:01;;;;;;;21.47;8.60;;;4.00;99.90;;;;;;4863235;29;20438;-79
2022/03/02 09:04:47;;;;;;;13.60;8.43;;;4.10;99.90;;;;;;4888380;29;20474;-80
2022/03/02 09:07:32;;;;;;;16.73;7.87;;;4.20;99.90;;;;;;4886954;29;20421;-81
2022/03/02 09:10:17;;;;;;;12.13;9.30;;;4.20;99.90;;;;;;4891062;29;20579;-81
2022/03/02 09:13:02;;;;;;;11.30;7.77;;;4.20;99.90;;;;;;4895759;29;20434;-81
2022/03/02 09:15:51;;;;;;;13.20;9.27;;;4.30;99.90;;;;;;4875934;29;20479;-81
2022/03/02 09:18:36;;;;;;;11.53;9.73;;;4.30;99.90;;;;;;4853543;29;20481;-81
2022/03/02 09:21:22;;;;;;;12.40;9.80;;;4.40;99.90;;;;;;4883145;29;20447;-81
2022/03/02 09:24:09;;;;;;;18.80;9.07;;;4.50;99.90;;;;;;4841059;29;20463;-80
2022/03/02 09:26:55;;;;;;;10.73;8.63;;;4.50;99.90;;;;;;4873857;29;20430;-79
2022/03/02 09:29:43;;;;;;;12.37;7.50;;;4.60;99.90;;;;;;4862947;29;20418;-81
2022/03/02 09:32:30;;;;;;;9.93;7.20;;;4.50;99.90;;;;;;4890673;29;20447;-82
2022/03/02 09:35:16;;;;;;;10.63;7.43;;;4.70;99.90;;;;;;4874674;29;20434;-80
2022/03/02 09:38:01;;;;;;;12.37;8.10;;;4.60;99.90;;;;;;4864120;29;20419;-79
2022/03/02 09:40:50;;;;;;;13.30;10.30;;;4.50;99.90;;;;;;4875350;29;20801;-80
2022/03/02 09:43:36;;;;;;;11.00;9.10;;;4.60;99.90;;;;;;4865112;29;20522;-80
2022/03/02 09:46:36;;;;;;;18.83;10.00;;;4.80;99.90;;;;;;4874124;29;20855;-81
2022/03/02 09:49:23;;;;;;;10.47;9.37;;;5.10;99.90;;;;;;4869578;29;20419;-81
2022/03/02 09:52:10;;;;;;;16.43;8.40;;;5.40;99.90;;;;;;4866493;29;20442;-80
2022/03/02 09:54:57;;;;;;;10.10;8.83;;;5.50;99.90;;;;;;4869562;29;20538;-80
2022/03/02 09:57:46;;;;;;;19.80;9.50;;;5.60;99.90;;;;;;4869611;29;20487;-81
2022/03/02 10:00:31;;;;;;;8.27;7.10;;;5.50;99.90;;;;;;4852271;29;21369;-80
2022/03/02 10:03:19;;;;;;;12.83;8.57;;;5.70;99.90;;;;;;4847762;29;20427;-80
2022/03/02 10:06:06;;;;;;;19.50;8.70;;;5.70;99.90;;;;;;4847892;29;20899;-80
2022/03/02 10:08:53;;;;;;;13.80;7.20;;;5.60;99.90;;;;;;4848387;29;20478;-81
2022/03/02 10:11:41;;;;;;;17.10;10.20;;;5.60;99.90;;;;;;4843021;29;20431;-80
2022/03/02 10:14:25;;;;;;;15.93;10.30;;;5.50;99.90;;;;;;4852046;29;20454;-80
2022/03/02 10:17:15;;;;;;;14.63;9.97;;;5.60;99.90;;;;;;4850368;29;20516;-80
2022/03/02 10:20:05;;;;;;;12.27;8.93;;;5.70;99.90;;;;;;4848717;29;20459;-79
2022/03/02 10:23:09;;;;;;;19.13;10.87;;;5.90;99.90;;;;;;4851743;29;20435;-80
2022/03/02 10:26:05;;;;;;;15.30;11.60;;;5.90;99.90;;;;;;4863208;29;20475;-81
2022/03/02 10:29:03;;;;;;;13.53;8.13;;;5.80;99.90;;;;;;4850175;29;20434;-79
2022/03/02 10:32:05;;;;;;;13.23;9.83;;;5.90;99.90;;;;;;4868674;29;20539;-81
2022/03/02 10:34:54;;;;;;;11.70;8.13;;;5.90;99.90;;;;;;4849747;29;20459;-80
2022/03/02 10:37:48;;;;;;;9.83;7.13;;;5.90;99.90;;;;;;4843163;29;20455;-81
2022/03/02 10:40:35;;;;;;;14.90;7.80;;;5.90;99.90;;;;;;4847697;29;20531;-79
2022/03/02 10:43:25;;;;;;;11.73;8.03;;;5.90;99.90;;;;;;4850473;29;20423;-79
2022/03/02 10:46:10;;;;;;;15.80;9.73;;;5.80;99.90;;;;;;4858767;29;20426;-80
2022/03/02 10:49:07;;;;;;;19.67;8.53;;;5.80;99.90;;;;;;4877707;29;20447;-79
2022/03/02 10:51:55;;;;;;;16.17;9.60;;;6.00;99.90;;;;;;4869878;29;20468;-80
2022/03/02 10:54:41;;;;;;;12.37;9.07;;;5.90;99.90;;;;;;4845791;29;20908;-81
2022/03/02 10:57:27;;;;;;;11.63;9.10;;;6.00;99.90;;;;;;4858943;29;20561;-80
2022/03/02 11:00:17;;;;;;;11.90;9.13;;;6.20;99.90;;;;;;4868347;29;20562;-81
2022/03/02 11:03:04;;;;;;;16.40;8.60;;;6.40;99.90;;;;;;4874205;29;20819;-81
2022/03/02 11:05:50;;;;;;;19.73;10.00;;;6.50;99.90;;;;;;4864527;29;20827;-80
2022/03/02 11:08:36;;;;;;;11.43;9.97;;;6.60;99.90;;;;;;4867634;29;20508;-80
2022/03/02 11:11:25;;;;;;;18.20;8.67;;;6.50;99.90;;;;;;4865711;29;20622;-80
2022/03/02 11:14:11;;;;;;;13.13;11.10;;;6.70;99.90;;;;;;4841431;29;20467;-80
2022/03/02 11:17:14;;;;;;;18.93;11.13;;;7.00;99.90;;;;;;4873115;29;20935;-79
2022/03/02 11:20:06;;;;;;;18.50;9.80;;;7.20;99.90;;;;;;4872910;29;20531;-81
2022/03/02 11:22:57;;;;;;;12.37;10.10;;;7.30;99.90;;;;;;4861048;29;20555;-81
2022/03/02 11:25:52;;;;;;;11.83;10.60;;;7.00;99.90;;;;;;4869722;29;20447;-80
2022/03/02 11:28:39;;;;;;;11.63;8.77;;;7.00;99.90;;;;;;4862948;29;20476;-81
2022/03/02 11:31:29;;;;;;;14.67;11.17;;;7.00;99.90;;;;;;4868689;29;20519;-81
2022/03/02 11:34:18;;;;;;;11.93;10.83;;;7.00;99.90;;;;;;4862898;29;20446;-81
2022/03/02 11:37:05;;;;;;;15.67;11.47;;;6.90;99.90;;;;;;4870319;29;20441;-81
2022/03/02 11:39:50;;;;;;;15.37;10.10;;;7.00;99.90;;;;;;4847613;29;20819;-81
2022/03/02 11:42:38;;;;;;;17.67;11.60;;;6.90;99.90;;;;;;4868079;29;20530;-83
2022/03/02 11:45:26;;;;;;;21.10;12.53;;;6.90;99.90;;;;;;4863769;29;20515;-82
2022/03/02 11:48:13;;;;;;;14.03;9.83;;;7.10;99.90;;;;;;4863768;29;21100;-80
2022/03/02 11:51:03;;;;;;;19.23;11.10;;;7.00;99.90;;;;;;4865864;29;20452;-82
2022/03/02 11:53:55;;;;;;;14.70;10.77;;;7.20;99.90;;;;;;4868754;29;20426;-82
2022/03/02 11:56:40;;;;;;;23.00;13.57;;;7.20;99.90;;;;;;4866890;29;20467;-80
2022/03/02 11:59:29;;;;;;;16.30;10.40;;;7.50;99.90;;;;;;4867773;29;20950;-80
2022/03/02 12:02:22;;;;;;;19.67;9.97;;;7.70;99.90;;;;;;4863356;29;20438;-80
2022/03/02 12:05:07;;;;;;;13.47;9.67;;;8.00;99.90;;;;;;4871587;29;20450;-80
2022/03/02 12:08:01;;;;;;;12.10;9.30;;;8.10;99.90;;;;;;4869392;29;20461;-79
2022/03/02 12:10:55;;;;;;;12.83;9.60;;;8.30;99.90;;;;;;4872842;29;20459;-80
2022/03/02 12:13:58;;;;;;;19.80;12.30;;;8.30;99.90;;;;;;4870171;29;20446;-80
2022/03/02 12:16:46;;;;;;;19.13;11.13;;;8.30;99.90;;;;;;4889538;29;20421;-79
2022/03/02 12:19:31;;;;;;;14.20;11.10;;;8.60;99.90;;;;;;4868343;29;20531;-80
2022/03/02 12:22:17;;;;;;;14.53;10.50;;;8.60;99.90;;;;;;4869080;29;20470;-80
2022/03/02 12:25:03;;;;;;;15.80;10.70;;;9.10;99.90;;;;;;4868775;29;21454;-79
2022/03/02 12:28:08;;;;;;;15.70;10.33;;;9.60;99.90;;;;;;4870587;29;20492;-82
2022/03/02 12:30:53;;;;;;;14.07;11.20;;;10.30;99.90;;;;;;4871188;29;20418;-80
2022/03/02 12:33:37;;;;;;;14.87;11.33;;;10.50;99.90;;;;;;4880297;29;20434;-81
2022/03/02 12:36:21;;;;;;;14.97;11.70;;;11.60;99.90;;;;;;4847257;29;20552;-79
2022/03/02 12:39:07;;;;;;;19.27;11.87;;;11.90;97.00;;;;;;4873448;29;20474;-79
2022/03/02 12:41:51;;;;;;;17.30;13.03;;;12.30;94.20;;;;;;4882894;29;20429;-78
2022/03/02 12:44:39;;;;;;;16.33;11.40;;;11.80;95.00;;;;;;4877390;29;20540;-79
2022/03/02 12:47:27;;;;;;;15.53;11.37;;;12.20;92.00;;;;;;4857921;29;20498;-79
2022/03/02 12:50:13;;;;;;;14.90;11.40;;;12.30;91.20;;;;;;4861277;29;20531;-80
2022/03/02 12:52:58;;;;;;;13.17;11.77;;;11.20;92.60;;;;;;4878076;29;20483;-78
2022/03/02 12:55:43;;;;;;;13.70;11.07;;;11.90;91.70;;;;;;4874149;29;20506;-80
2022/03/02 12:58:29;;;;;;;14.40;11.60;;;11.70;90.90;;;;;;4857916;29;20538;-81
2022/03/02 13:01:14;;;;;;;14.00;11.17;;;11.30;94.00;;;;;;4871059;29;20450;-80
2022/03/02 13:04:11;;;;;;;15.40;11.10;;;11.70;90.30;;;;;;4867864;29;20425;-79
2022/03/02 13:07:15;;;;;;;23.50;12.17;;;11.80;89.50;;;;;;4823664;29;20462;-81
2022/03/02 13:10:03;;;;;;;11.73;9.80;;;12.50;90.10;;;;;;4843180;29;20507;-81
2022/03/02 13:12:57;;;;;;;14.17;10.80;;;13.00;82.10;;;;;;4832712;29;20485;-81
2022/03/02 13:15:45;;;;;;;12.83;10.87;;;12.40;77.90;;;;;;4844460;29;20960;-81
2022/03/02 13:18:38;;;;;;;12.13;10.40;;;12.30;84.60;;;;;;4839894;29;20575;-78
2022/03/02 13:21:28;;;;;;;18.50;12.30;;;12.60;82.40;;;;;;4839411;29;20523;-80
2022/03/02 13:24:16;;;;;;;12.33;10.90;;;12.80;83.40;;;;;;4841103;29;20495;-79
2022/03/02 13:27:07;;;;;;;15.37;11.87;;;12.60;77.30;;;;;;4837882;29;20579;-79
2022/03/02 13:29:58;;;;;;;12.43;11.20;;;12.30;76.90;;;;;;4840052;29;20447;-81
2022/03/02 13:32:54;;;;;;;13.90;10.87;;;12.30;76.10;;;;;;4842875;29;20450;-80
2022/03/02 13:35:54;;;;;;;17.70;11.70;;;12.60;75.50;;;;;;4811691;29;20459;-81
2022/03/02 13:38:47;;;;;;;17.33;11.60;;;13.60;73.80;;;;;;4867944;29;20474;-80
2022/03/02 13:41:46;;;;;;;14.30;12.40;;;13.80;69.80;;;;;;4854899;29;20909;-81
2022/03/02 13:44:40;;;;;;;15.90;11.20;;;13.70;70.50;;;;;;4868409;29;20487;-81
2022/03/02 13:47:26;;;;;;;12.13;9.77;;;13.90;66.80;;;;;;4866852;29;20519;-81
2022/03/02 13:50:13;;;;;;;11.10;9.40;;;13.50;66.00;;;;;;4866264;29;20529;-79
2022/03/02 13:53:01;;;;;;;13.77;10.03;;;14.40;65.00;;;;;;4868514;29;20959;-80
2022/03/02 13:55:47;;;;;;;13.03;9.73;;;14.80;62.70;;;;;;4866832;29;20966;-81
2022/03/02 13:58:34;;;;;;;13.70;9.90;;;16.50;62.40;;;;;;4871695;29;20923;-82
2022/03/02 14:01:22;;;;;;;13.20;10.10;;;17.00;59.00;;;;;;4856536;29;20492;-81
2022/03/02 14:04:12;;;;;;;10.80;9.80;;;17.70;57.40;;;;;;4871192;29;20422;-80
2022/03/02 14:07:04;;;;;;;11.70;10.57;;;17.00;55.60;;;;;;4856834;29;20533;-79
2022/03/02 14:10:00;;;;;;;12.93;10.50;;;16.30;55.50;;;;;;4864203;29;20422;-79
2022/03/02 14:12:56;;;;;;;13.80;10.83;;;16.80;54.80;;;;;;4872701;29;20980;-78
2022/03/02 14:15:41;;;;;;;14.50;10.30;;;16.50;53.10;;;;;;4882064;29;20459;-79
2022/03/02 14:18:25;;;;;;;11.60;9.57;;;16.60;52.50;;;;;;4869486;29;20455;-78
2022/03/02 14:21:11;;;;;;;10.37;9.37;;;15.90;53.10;;;;;;4858471;29;20466;-78
2022/03/02 14:23:56;;;;;;;10.67;9.57;;;16.70;54.70;;;;;;4877763;29;20444;-79
2022/03/02 14:27:00;;;;;;;11.10;10.10;;;17.80;52.80;;;;;;4851963;29;20451;-79
2022/03/02 14:29:56;;;;;;;9.20;8.20;;;18.10;52.00;;;;;;4877878;29;20472;-77